sensor_id;sensor_type;location;lat;lon;timestamp;P1;durP1;ratioP1;P2;durP2;ratioP2
12878;SDS011;20617;49.476;10.986;2023-07-22T00:01:34;6.00;;;3.30;;
12878;SDS011;20617;49.476;10.986;2023-07-22T00:03:39;4.07;;;2.88;;
12878;SDS011;20617;49.476;10.986;2023-07-22T00:05:45;4.97;;;3.70;;
12878;SDS011;20617;49.476;10.986;2023-07-22T00:07:50;5.53;;;2.90;;
12878;SDS011;20617;49.476;10.986;2023-07-22T00:09:58;4.65;;;3.40;;
12878;SDS011;20617;49.476;10.986;2023-07-22T00:12:03;5.20;;;2.95;;
12878;SDS011;20617;49.476;10.986;2023-07-22T00:14:11;3.50;;;3.00;;
12878;SDS011;20617;49.476;10.986;2023-07-22T00:16:16;4.25;;;3.05;;
12878;SDS011;20617;49.476;10.986;2023-07-22T00:18:22;5.57;;;3.47;;
12878;SDS011;20617;49.476;10.986;2023-07-22T00:20:32;3.13;;;2.65;;
12878;SDS011;20617;49.476;10.986;2023-07-22T00:24:44;3.42;;;2.83;;
12878;SDS011;20617;49.476;10.986;2023-07-22T00:26:53;5.05;;;2.97;;
12878;SDS011;20617;49.476;10.986;2023-07-22T00:28:58;3.45;;;2.63;;
12878;SDS011;20617;49.476;10.986;2023-07-22T00:31:04;5.55;;;2.80;;
12878;SDS011;20617;49.476;10.986;2023-07-22T00:33:10;3.90;;;3.00;;
12878;SDS011;20617;49.476;10.986;2023-07-22T00:35:15;5.72;;;3.42;;
12878;SDS011;20617;49.476;10.986;2023-07-22T00:37:23;5.68;;;3.47;;
12878;SDS011;20617;49.476;10.986;2023-07-22T00:39:30;4.57;;;2.80;;
12878;SDS011;20617;49.476;10.986;2023-07-22T00:41:35;3.50;;;2.72;;
12878;SDS011;20617;49.476;10.986;2023-07-22T00:43:42;4.32;;;2.90;;
12878;SDS011;20617;49.476;10.986;2023-07-22T00:45:49;3.33;;;2.58;;
12878;SDS011;20617;49.476;10.986;2023-07-22T00:47:55;4.20;;;3.10;;
12878;SDS011;20617;49.476;10.986;2023-07-22T00:52:08;4.03;;;2.75;;
12878;SDS011;20617;49.476;10.986;2023-07-22T00:54:10;4.25;;;3.00;;
12878;SDS011;20617;49.476;10.986;2023-07-22T00:56:15;4.85;;;2.88;;
12878;SDS011;20617;49.476;10.986;2023-07-22T00:58:22;4.85;;;2.42;;
12878;SDS011;20617;49.476;10.986;2023-07-22T01:00:29;3.58;;;2.70;;
12878;SDS011;20617;49.476;10.986;2023-07-22T01:02:35;4.75;;;2.90;;
12878;SDS011;20617;49.476;10.986;2023-07-22T01:06:44;4.72;;;3.28;;
12878;SDS011;20617;49.476;10.986;2023-07-22T01:08:50;4.38;;;2.83;;
12878;SDS011;20617;49.476;10.986;2023-07-22T01:13:00;4.50;;;3.20;;
12878;SDS011;20617;49.476;10.986;2023-07-22T01:17:14;6.05;;;3.53;;
12878;SDS011;20617;49.476;10.986;2023-07-22T01:19:20;3.45;;;2.83;;
12878;SDS011;20617;49.476;10.986;2023-07-22T01:21:26;3.78;;;2.85;;
12878;SDS011;20617;49.476;10.986;2023-07-22T01:23:34;4.13;;;2.85;;
12878;SDS011;20617;49.476;10.986;2023-07-22T01:25:39;6.93;;;3.22;;
12878;SDS011;20617;49.476;10.986;2023-07-22T01:27:44;4.20;;;3.38;;
12878;SDS011;20617;49.476;10.986;2023-07-22T01:29:50;4.65;;;3.33;;
12878;SDS011;20617;49.476;10.986;2023-07-22T01:31:53;4.03;;;3.15;;
12878;SDS011;20617;49.476;10.986;2023-07-22T01:34:00;5.47;;;3.15;;
12878;SDS011;20617;49.476;10.986;2023-07-22T01:36:05;6.03;;;2.92;;
12878;SDS011;20617;49.476;10.986;2023-07-22T01:40:19;4.93;;;3.08;;
12878;SDS011;20617;49.476;10.986;2023-07-22T01:42:25;4.28;;;2.88;;
12878;SDS011;20617;49.476;10.986;2023-07-22T01:44:32;4.95;;;2.97;;
12878;SDS011;20617;49.476;10.986;2023-07-22T01:48:43;4.38;;;2.85;;
12878;SDS011;20617;49.476;10.986;2023-07-22T01:50:47;5.30;;;2.88;;
12878;SDS011;20617;49.476;10.986;2023-07-22T01:52:53;2.90;;;2.55;;
12878;SDS011;20617;49.476;10.986;2023-07-22T01:54:57;4.97;;;3.08;;
12878;SDS011;20617;49.476;10.986;2023-07-22T01:57:05;3.08;;;2.70;;
12878;SDS011;20617;49.476;10.986;2023-07-22T01:59:08;4.00;;;3.00;;
12878;SDS011;20617;49.476;10.986;2023-07-22T02:01:13;4.85;;;3.45;;
12878;SDS011;20617;49.476;10.986;2023-07-22T02:03:21;3.53;;;2.72;;
12878;SDS011;20617;49.476;10.986;2023-07-22T02:05:29;3.30;;;2.80;;
12878;SDS011;20617;49.476;10.986;2023-07-22T02:07:34;4.10;;;2.63;;
12878;SDS011;20617;49.476;10.986;2023-07-22T02:09:38;4.05;;;2.90;;
12878;SDS011;20617;49.476;10.986;2023-07-22T02:11:46;3.53;;;2.70;;
12878;SDS011;20617;49.476;10.986;2023-07-22T02:13:53;5.05;;;2.97;;
12878;SDS011;20617;49.476;10.986;2023-07-22T02:15:58;4.63;;;3.30;;
12878;SDS011;20617;49.476;10.986;2023-07-22T02:20:08;3.90;;;2.70;;
12878;SDS011;20617;49.476;10.986;2023-07-22T02:22:14;3.40;;;2.75;;
12878;SDS011;20617;49.476;10.986;2023-07-22T02:24:20;4.88;;;3.17;;
12878;SDS011;20617;49.476;10.986;2023-07-22T02:26:25;3.90;;;2.90;;
12878;SDS011;20617;49.476;10.986;2023-07-22T02:28:33;6.88;;;3.10;;
12878;SDS011;20617;49.476;10.986;2023-07-22T02:30:38;5.38;;;3.05;;
12878;SDS011;20617;49.476;10.986;2023-07-22T02:32:43;4.40;;;2.97;;
12878;SDS011;20617;49.476;10.986;2023-07-22T02:34:49;4.07;;;2.88;;
12878;SDS011;20617;49.476;10.986;2023-07-22T02:36:54;3.20;;;2.90;;
12878;SDS011;20617;49.476;10.986;2023-07-22T02:38:59;3.63;;;2.92;;
12878;SDS011;20617;49.476;10.986;2023-07-22T02:41:05;4.47;;;2.80;;
12878;SDS011;20617;49.476;10.986;2023-07-22T02:43:10;4.05;;;2.88;;
12878;SDS011;20617;49.476;10.986;2023-07-22T02:45:15;4.07;;;3.20;;
12878;SDS011;20617;49.476;10.986;2023-07-22T02:47:23;3.03;;;2.72;;
12878;SDS011;20617;49.476;10.986;2023-07-22T02:49:30;4.07;;;3.20;;
12878;SDS011;20617;49.476;10.986;2023-07-22T02:51:35;4.20;;;2.90;;
12878;SDS011;20617;49.476;10.986;2023-07-22T02:53:40;4.15;;;2.80;;
12878;SDS011;20617;49.476;10.986;2023-07-22T02:55:50;4.57;;;2.60;;
12878;SDS011;20617;49.476;10.986;2023-07-22T02:57:55;3.53;;;2.97;;
12878;SDS011;20617;49.476;10.986;2023-07-22T03:00:00;5.18;;;3.10;;
12878;SDS011;20617;49.476;10.986;2023-07-22T03:02:06;4.45;;;3.20;;
12878;SDS011;20617;49.476;10.986;2023-07-22T03:04:18;4.03;;;2.83;;
12878;SDS011;20617;49.476;10.986;2023-07-22T03:06:24;5.80;;;3.15;;
12878;SDS011;20617;49.476;10.986;2023-07-22T03:08:30;6.00;;;3.08;;
12878;SDS011;20617;49.476;10.986;2023-07-22T03:10:35;4.35;;;2.90;;
12878;SDS011;20617;49.476;10.986;2023-07-22T03:12:41;7.65;;;3.58;;
12878;SDS011;20617;49.476;10.986;2023-07-22T03:14:44;3.95;;;2.90;;
12878;SDS011;20617;49.476;10.986;2023-07-22T03:16:50;3.88;;;3.17;;
12878;SDS011;20617;49.476;10.986;2023-07-22T03:21:03;5.50;;;2.95;;
12878;SDS011;20617;49.476;10.986;2023-07-22T03:23:08;4.45;;;3.28;;
12878;SDS011;20617;49.476;10.986;2023-07-22T03:25:13;5.60;;;3.08;;
12878;SDS011;20617;49.476;10.986;2023-07-22T03:27:24;4.53;;;3.38;;
12878;SDS011;20617;49.476;10.986;2023-07-22T03:29:27;4.60;;;3.33;;
12878;SDS011;20617;49.476;10.986;2023-07-22T03:31:33;4.60;;;3.63;;
12878;SDS011;20617;49.476;10.986;2023-07-22T03:33:38;4.03;;;3.05;;
12878;SDS011;20617;49.476;10.986;2023-07-22T03:35:47;6.70;;;2.97;;
12878;SDS011;20617;49.476;10.986;2023-07-22T03:37:55;3.83;;;2.88;;
12878;SDS011;20617;49.476;10.986;2023-07-22T03:40:00;5.00;;;3.72;;
12878;SDS011;20617;49.476;10.986;2023-07-22T03:42:08;4.40;;;2.97;;
12878;SDS011;20617;49.476;10.986;2023-07-22T03:46:18;4.82;;;3.08;;
12878;SDS011;20617;49.476;10.986;2023-07-22T03:48:27;4.43;;;2.78;;
12878;SDS011;20617;49.476;10.986;2023-07-22T03:50:32;3.83;;;2.90;;
12878;SDS011;20617;49.476;10.986;2023-07-22T03:52:37;4.10;;;2.72;;
12878;SDS011;20617;49.476;10.986;2023-07-22T03:54:42;4.40;;;3.42;;
12878;SDS011;20617;49.476;10.986;2023-07-22T03:56:47;4.03;;;2.60;;
12878;SDS011;20617;49.476;10.986;2023-07-22T03:58:52;3.75;;;2.67;;
12878;SDS011;20617;49.476;10.986;2023-07-22T04:00:57;3.85;;;2.97;;
12878;SDS011;20617;49.476;10.986;2023-07-22T04:03:02;4.10;;;3.20;;
12878;SDS011;20617;49.476;10.986;2023-07-22T04:05:08;3.28;;;2.80;;
12878;SDS011;20617;49.476;10.986;2023-07-22T04:07:13;3.95;;;3.00;;
12878;SDS011;20617;49.476;10.986;2023-07-22T04:09:18;3.80;;;2.95;;
12878;SDS011;20617;49.476;10.986;2023-07-22T04:11:28;5.65;;;3.50;;
12878;SDS011;20617;49.476;10.986;2023-07-22T04:13:33;3.83;;;3.13;;
12878;SDS011;20617;49.476;10.986;2023-07-22T04:15:38;5.82;;;3.30;;
12878;SDS011;20617;49.476;10.986;2023-07-22T04:17:43;4.88;;;3.08;;
12878;SDS011;20617;49.476;10.986;2023-07-22T04:19:50;4.43;;;3.00;;
12878;SDS011;20617;49.476;10.986;2023-07-22T04:21:57;3.88;;;3.35;;
12878;SDS011;20617;49.476;10.986;2023-07-22T04:24:05;3.88;;;3.13;;
12878;SDS011;20617;49.476;10.986;2023-07-22T04:26:12;5.90;;;2.80;;
12878;SDS011;20617;49.476;10.986;2023-07-22T04:28:20;4.47;;;2.88;;
12878;SDS011;20617;49.476;10.986;2023-07-22T04:30:27;4.63;;;2.88;;
12878;SDS011;20617;49.476;10.986;2023-07-22T04:32:32;4.28;;;3.00;;
12878;SDS011;20617;49.476;10.986;2023-07-22T04:34:37;4.30;;;2.90;;
12878;SDS011;20617;49.476;10.986;2023-07-22T04:36:42;4.55;;;3.10;;
12878;SDS011;20617;49.476;10.986;2023-07-22T04:38:47;3.20;;;2.72;;
12878;SDS011;20617;49.476;10.986;2023-07-22T04:40:52;9.05;;;3.15;;
12878;SDS011;20617;49.476;10.986;2023-07-22T04:42:57;5.30;;;3.15;;
12878;SDS011;20617;49.476;10.986;2023-07-22T04:45:06;4.38;;;3.10;;
12878;SDS011;20617;49.476;10.986;2023-07-22T04:47:13;3.35;;;2.65;;
12878;SDS011;20617;49.476;10.986;2023-07-22T04:49:18;3.83;;;2.97;;
12878;SDS011;20617;49.476;10.986;2023-07-22T04:51:28;3.45;;;2.75;;
12878;SDS011;20617;49.476;10.986;2023-07-22T04:53:34;4.78;;;3.00;;
12878;SDS011;20617;49.476;10.986;2023-07-22T04:55:39;4.10;;;3.03;;
12878;SDS011;20617;49.476;10.986;2023-07-22T04:57:44;3.50;;;2.75;;
12878;SDS011;20617;49.476;10.986;2023-07-22T04:59:49;3.97;;;2.95;;
12878;SDS011;20617;49.476;10.986;2023-07-22T05:01:56;4.97;;;3.53;;
12878;SDS011;20617;49.476;10.986;2023-07-22T05:04:02;4.68;;;2.50;;
12878;SDS011;20617;49.476;10.986;2023-07-22T05:06:08;5.65;;;3.42;;
12878;SDS011;20617;49.476;10.986;2023-07-22T05:08:13;3.88;;;3.15;;
12878;SDS011;20617;49.476;10.986;2023-07-22T05:10:17;3.35;;;2.85;;
12878;SDS011;20617;49.476;10.986;2023-07-22T05:12:21;3.67;;;2.80;;
12878;SDS011;20617;49.476;10.986;2023-07-22T05:14:29;4.00;;;3.05;;
12878;SDS011;20617;49.476;10.986;2023-07-22T05:16:34;4.75;;;3.22;;
12878;SDS011;20617;49.476;10.986;2023-07-22T05:18:42;4.85;;;2.83;;
12878;SDS011;20617;49.476;10.986;2023-07-22T05:20:47;4.88;;;3.35;;
12878;SDS011;20617;49.476;10.986;2023-07-22T05:22:52;4.63;;;3.40;;
12878;SDS011;20617;49.476;10.986;2023-07-22T05:24:54;4.03;;;3.25;;
12878;SDS011;20617;49.476;10.986;2023-07-22T05:27:04;4.93;;;2.90;;
12878;SDS011;20617;49.476;10.986;2023-07-22T05:29:10;3.88;;;2.90;;
12878;SDS011;20617;49.476;10.986;2023-07-22T05:31:15;3.15;;;2.40;;
12878;SDS011;20617;49.476;10.986;2023-07-22T05:33:21;3.70;;;3.20;;
12878;SDS011;20617;49.476;10.986;2023-07-22T05:35:32;4.43;;;2.95;;
12878;SDS011;20617;49.476;10.986;2023-07-22T05:37:37;3.67;;;2.70;;
12878;SDS011;20617;49.476;10.986;2023-07-22T05:41:47;6.25;;;3.20;;
12878;SDS011;20617;49.476;10.986;2023-07-22T05:43:52;5.60;;;3.58;;
12878;SDS011;20617;49.476;10.986;2023-07-22T05:45:57;4.53;;;3.17;;
12878;SDS011;20617;49.476;10.986;2023-07-22T05:48:02;3.38;;;2.65;;
12878;SDS011;20617;49.476;10.986;2023-07-22T05:50:08;4.35;;;3.28;;
12878;SDS011;20617;49.476;10.986;2023-07-22T05:52:13;3.97;;;3.13;;
12878;SDS011;20617;49.476;10.986;2023-07-22T05:54:18;5.63;;;3.38;;
12878;SDS011;20617;49.476;10.986;2023-07-22T05:56:23;6.00;;;3.13;;
12878;SDS011;20617;49.476;10.986;2023-07-22T05:58:30;5.47;;;3.25;;
12878;SDS011;20617;49.476;10.986;2023-07-22T06:00:35;3.97;;;3.00;;
12878;SDS011;20617;49.476;10.986;2023-07-22T06:02:41;6.18;;;2.72;;
12878;SDS011;20617;49.476;10.986;2023-07-22T06:04:48;3.20;;;2.90;;
12878;SDS011;20617;49.476;10.986;2023-07-22T06:06:53;3.70;;;2.90;;
12878;SDS011;20617;49.476;10.986;2023-07-22T06:09:02;4.90;;;2.70;;
12878;SDS011;20617;49.476;10.986;2023-07-22T06:11:07;3.80;;;3.05;;
12878;SDS011;20617;49.476;10.986;2023-07-22T06:13:12;8.18;;;3.17;;
12878;SDS011;20617;49.476;10.986;2023-07-22T06:15:17;3.63;;;2.95;;
12878;SDS011;20617;49.476;10.986;2023-07-22T06:17:22;4.05;;;2.95;;
12878;SDS011;20617;49.476;10.986;2023-07-22T06:19:27;8.02;;;3.10;;
12878;SDS011;20617;49.476;10.986;2023-07-22T06:21:32;3.58;;;2.97;;
12878;SDS011;20617;49.476;10.986;2023-07-22T06:23:38;4.35;;;2.85;;
12878;SDS011;20617;49.476;10.986;2023-07-22T06:25:46;2.50;;;2.30;;
12878;SDS011;20617;49.476;10.986;2023-07-22T06:27:51;4.70;;;3.10;;
12878;SDS011;20617;49.476;10.986;2023-07-22T06:31:58;4.32;;;2.88;;
12878;SDS011;20617;49.476;10.986;2023-07-22T06:36:08;3.53;;;2.60;;
12878;SDS011;20617;49.476;10.986;2023-07-22T06:38:13;6.15;;;2.97;;
12878;SDS011;20617;49.476;10.986;2023-07-22T06:42:25;6.07;;;3.20;;
12878;SDS011;20617;49.476;10.986;2023-07-22T06:44:32;2.85;;;2.53;;
12878;SDS011;20617;49.476;10.986;2023-07-22T06:46:37;4.03;;;3.13;;
12878;SDS011;20617;49.476;10.986;2023-07-22T06:48:39;9.23;;;3.70;;
12878;SDS011;20617;49.476;10.986;2023-07-22T06:50:46;4.15;;;3.42;;
12878;SDS011;20617;49.476;10.986;2023-07-22T06:52:52;4.88;;;3.20;;
12878;SDS011;20617;49.476;10.986;2023-07-22T06:54:54;5.30;;;2.72;;
12878;SDS011;20617;49.476;10.986;2023-07-22T06:59:07;4.45;;;3.38;;
12878;SDS011;20617;49.476;10.986;2023-07-22T07:01:14;4.47;;;3.55;;
12878;SDS011;20617;49.476;10.986;2023-07-22T07:03:20;6.80;;;3.15;;
12878;SDS011;20617;49.476;10.986;2023-07-22T07:05:23;3.22;;;2.92;;
12878;SDS011;20617;49.476;10.986;2023-07-22T07:07:30;3.95;;;3.10;;
12878;SDS011;20617;49.476;10.986;2023-07-22T07:09:36;3.75;;;2.95;;
12878;SDS011;20617;49.476;10.986;2023-07-22T07:11:41;6.10;;;3.78;;
12878;SDS011;20617;49.476;10.986;2023-07-22T07:13:46;5.70;;;3.28;;
12878;SDS011;20617;49.476;10.986;2023-07-22T07:15:54;4.28;;;3.17;;
12878;SDS011;20617;49.476;10.986;2023-07-22T07:17:59;3.80;;;3.40;;
12878;SDS011;20617;49.476;10.986;2023-07-22T07:22:09;4.97;;;3.50;;
12878;SDS011;20617;49.476;10.986;2023-07-22T07:24:12;4.90;;;3.33;;
12878;SDS011;20617;49.476;10.986;2023-07-22T07:26:18;6.00;;;4.07;;
12878;SDS011;20617;49.476;10.986;2023-07-22T07:28:23;6.57;;;4.15;;
12878;SDS011;20617;49.476;10.986;2023-07-22T07:32:36;6.03;;;4.30;;
12878;SDS011;20617;49.476;10.986;2023-07-22T07:34:41;4.47;;;3.55;;
12878;SDS011;20617;49.476;10.986;2023-07-22T07:36:46;5.05;;;3.20;;
12878;SDS011;20617;49.476;10.986;2023-07-22T07:38:51;5.00;;;4.00;;
12878;SDS011;20617;49.476;10.986;2023-07-22T07:41:01;7.32;;;4.68;;
12878;SDS011;20617;49.476;10.986;2023-07-22T07:43:10;5.25;;;3.60;;
12878;SDS011;20617;49.476;10.986;2023-07-22T07:45:15;6.43;;;4.10;;
12878;SDS011;20617;49.476;10.986;2023-07-22T07:47:22;5.35;;;3.75;;
12878;SDS011;20617;49.476;10.986;2023-07-22T07:49:30;4.32;;;3.33;;
12878;SDS011;20617;49.476;10.986;2023-07-22T07:51:35;4.18;;;3.67;;
12878;SDS011;20617;49.476;10.986;2023-07-22T07:53:37;4.95;;;3.97;;
12878;SDS011;20617;49.476;10.986;2023-07-22T07:55:44;5.28;;;3.65;;
12878;SDS011;20617;49.476;10.986;2023-07-22T07:57:49;4.50;;;3.40;;
12878;SDS011;20617;49.476;10.986;2023-07-22T07:59:54;4.05;;;3.15;;
12878;SDS011;20617;49.476;10.986;2023-07-22T08:01:59;4.03;;;2.90;;
12878;SDS011;20617;49.476;10.986;2023-07-22T08:04:06;5.35;;;4.20;;
12878;SDS011;20617;49.476;10.986;2023-07-22T08:08:21;4.68;;;3.50;;
12878;SDS011;20617;49.476;10.986;2023-07-22T08:10:29;4.53;;;3.40;;
12878;SDS011;20617;49.476;10.986;2023-07-22T08:14:39;5.05;;;3.63;;
12878;SDS011;20617;49.476;10.986;2023-07-22T08:16:44;7.35;;;4.25;;
12878;SDS011;20617;49.476;10.986;2023-07-22T08:20:54;9.00;;;4.18;;
12878;SDS011;20617;49.476;10.986;2023-07-22T08:23:02;4.05;;;3.55;;
12878;SDS011;20617;49.476;10.986;2023-07-22T08:25:08;5.03;;;4.00;;
12878;SDS011;20617;49.476;10.986;2023-07-22T08:27:15;5.55;;;3.75;;
12878;SDS011;20617;49.476;10.986;2023-07-22T08:29:22;5.38;;;3.70;;
12878;SDS011;20617;49.476;10.986;2023-07-22T08:31:24;4.00;;;3.50;;
12878;SDS011;20617;49.476;10.986;2023-07-22T08:33:32;3.70;;;3.25;;
12878;SDS011;20617;49.476;10.986;2023-07-22T08:35:42;6.55;;;4.30;;
12878;SDS011;20617;49.476;10.986;2023-07-22T08:37:49;4.75;;;3.60;;
12878;SDS011;20617;49.476;10.986;2023-07-22T08:39:58;5.63;;;3.80;;
12878;SDS011;20617;49.476;10.986;2023-07-22T08:42:03;3.97;;;2.97;;
12878;SDS011;20617;49.476;10.986;2023-07-22T08:44:09;5.15;;;3.70;;
12878;SDS011;20617;49.476;10.986;2023-07-22T08:46:19;5.55;;;3.78;;
12878;SDS011;20617;49.476;10.986;2023-07-22T08:48:26;5.20;;;3.33;;
12878;SDS011;20617;49.476;10.986;2023-07-22T08:50:31;4.90;;;3.78;;
12878;SDS011;20617;49.476;10.986;2023-07-22T08:52:41;4.57;;;3.13;;
12878;SDS011;20617;49.476;10.986;2023-07-22T08:54:47;3.78;;;2.70;;
12878;SDS011;20617;49.476;10.986;2023-07-22T08:56:57;4.20;;;3.40;;
12878;SDS011;20617;49.476;10.986;2023-07-22T08:59:02;5.03;;;3.40;;
12878;SDS011;20617;49.476;10.986;2023-07-22T09:01:11;4.00;;;3.28;;
12878;SDS011;20617;49.476;10.986;2023-07-22T09:03:17;4.13;;;2.63;;
12878;SDS011;20617;49.476;10.986;2023-07-22T09:05:23;5.05;;;3.63;;
12878;SDS011;20617;49.476;10.986;2023-07-22T09:07:29;5.53;;;3.67;;
12878;SDS011;20617;49.476;10.986;2023-07-22T09:09:35;4.05;;;3.45;;
12878;SDS011;20617;49.476;10.986;2023-07-22T09:11:40;5.50;;;3.53;;
12878;SDS011;20617;49.476;10.986;2023-07-22T09:13:47;5.20;;;3.50;;
12878;SDS011;20617;49.476;10.986;2023-07-22T09:15:53;3.63;;;2.83;;
12878;SDS011;20617;49.476;10.986;2023-07-22T09:18:02;4.93;;;3.10;;
12878;SDS011;20617;49.476;10.986;2023-07-22T09:20:08;6.85;;;3.30;;
12878;SDS011;20617;49.476;10.986;2023-07-22T09:22:17;3.95;;;3.40;;
12878;SDS011;20617;49.476;10.986;2023-07-22T09:24:22;4.15;;;3.03;;
12878;SDS011;20617;49.476;10.986;2023-07-22T09:26:30;3.90;;;3.10;;
12878;SDS011;20617;49.476;10.986;2023-07-22T09:28:50;3.80;;;3.42;;
12878;SDS011;20617;49.476;10.986;2023-07-22T09:31:01;4.80;;;3.00;;
12878;SDS011;20617;49.476;10.986;2023-07-22T09:33:15;3.30;;;3.00;;
12878;SDS011;20617;49.476;10.986;2023-07-22T09:35:42;5.70;;;4.60;;
12878;SDS011;20617;49.476;10.986;2023-07-22T09:42:05;8.90;;;3.67;;
12878;SDS011;20617;49.476;10.986;2023-07-22T09:44:14;5.05;;;3.30;;
12878;SDS011;20617;49.476;10.986;2023-07-22T09:46:20;6.95;;;3.53;;
12878;SDS011;20617;49.476;10.986;2023-07-22T09:48:27;6.53;;;3.75;;
12878;SDS011;20617;49.476;10.986;2023-07-22T09:50:35;4.10;;;3.20;;
12878;SDS011;20617;49.476;10.986;2023-07-22T09:52:51;4.90;;;2.80;;
12878;SDS011;20617;49.476;10.986;2023-07-22T09:55:01;2.80;;;2.50;;
12878;SDS011;20617;49.476;10.986;2023-07-22T09:57:06;2.80;;;2.15;;
12878;SDS011;20617;49.476;10.986;2023-07-22T09:59:20;3.80;;;2.50;;
12878;SDS011;20617;49.476;10.986;2023-07-22T10:01:28;2.97;;;2.50;;
12878;SDS011;20617;49.476;10.986;2023-07-22T10:03:33;3.55;;;2.65;;
12878;SDS011;20617;49.476;10.986;2023-07-22T10:05:44;4.20;;;2.45;;
12878;SDS011;20617;49.476;10.986;2023-07-22T10:07:52;21.40;;;3.72;;
12878;SDS011;20617;49.476;10.986;2023-07-22T10:09:58;3.05;;;2.75;;
12878;SDS011;20617;49.476;10.986;2023-07-22T10:12:03;4.32;;;2.60;;
12878;SDS011;20617;49.476;10.986;2023-07-22T10:14:10;3.67;;;2.47;;
12878;SDS011;20617;49.476;10.986;2023-07-22T10:16:19;4.25;;;3.03;;
12878;SDS011;20617;49.476;10.986;2023-07-22T10:18:25;4.35;;;3.25;;
12878;SDS011;20617;49.476;10.986;2023-07-22T10:20:31;4.95;;;3.35;;
12878;SDS011;20617;49.476;10.986;2023-07-22T10:22:39;4.47;;;3.45;;
12878;SDS011;20617;49.476;10.986;2023-07-22T10:24:45;8.43;;;4.13;;
12878;SDS011;20617;49.476;10.986;2023-07-22T10:26:52;6.40;;;4.15;;
12878;SDS011;20617;49.476;10.986;2023-07-22T10:28:58;6.75;;;3.97;;
12878;SDS011;20617;49.476;10.986;2023-07-22T10:31:04;6.35;;;4.22;;
12878;SDS011;20617;49.476;10.986;2023-07-22T10:33:14;5.80;;;3.67;;
12878;SDS011;20617;49.476;10.986;2023-07-22T10:35:33;5.43;;;3.92;;
12878;SDS011;20617;49.476;10.986;2023-07-22T10:37:46;5.20;;;3.80;;
12878;SDS011;20617;49.476;10.986;2023-07-22T10:39:51;6.38;;;3.78;;
12878;SDS011;20617;49.476;10.986;2023-07-22T10:44:07;6.10;;;3.95;;
12878;SDS011;20617;49.476;10.986;2023-07-22T10:46:14;3.92;;;3.40;;
12878;SDS011;20617;49.476;10.986;2023-07-22T10:48:22;6.35;;;3.83;;
12878;SDS011;20617;49.476;10.986;2023-07-22T10:50:43;6.22;;;3.72;;
12878;SDS011;20617;49.476;10.986;2023-07-22T10:52:51;4.72;;;3.40;;
12878;SDS011;20617;49.476;10.986;2023-07-22T10:54:56;6.05;;;3.30;;
12878;SDS011;20617;49.476;10.986;2023-07-22T10:59:09;3.83;;;3.00;;
12878;SDS011;20617;49.476;10.986;2023-07-22T11:01:21;2.95;;;2.40;;
12878;SDS011;20617;49.476;10.986;2023-07-22T11:03:29;5.65;;;2.78;;
12878;SDS011;20617;49.476;10.986;2023-07-22T11:05:47;6.43;;;3.95;;
12878;SDS011;20617;49.476;10.986;2023-07-22T11:07:52;3.10;;;2.45;;
12878;SDS011;20617;49.476;10.986;2023-07-22T11:10:15;3.25;;;2.33;;
12878;SDS011;20617;49.476;10.986;2023-07-22T11:12:25;4.10;;;3.05;;
12878;SDS011;20617;49.476;10.986;2023-07-22T11:14:30;6.18;;;2.90;;
12878;SDS011;20617;49.476;10.986;2023-07-22T11:16:34;3.57;;;2.63;;
12878;SDS011;20617;49.476;10.986;2023-07-22T11:20:46;3.08;;;2.65;;
12878;SDS011;20617;49.476;10.986;2023-07-22T11:22:57;2.55;;;2.30;;
12878;SDS011;20617;49.476;10.986;2023-07-22T11:25:02;2.92;;;2.40;;
12878;SDS011;20617;49.476;10.986;2023-07-22T11:27:07;5.20;;;2.75;;
12878;SDS011;20617;49.476;10.986;2023-07-22T11:29:13;5.00;;;2.65;;
12878;SDS011;20617;49.476;10.986;2023-07-22T11:31:18;3.53;;;2.55;;
12878;SDS011;20617;49.476;10.986;2023-07-22T11:33:25;3.55;;;2.80;;
12878;SDS011;20617;49.476;10.986;2023-07-22T11:37:37;4.70;;;2.40;;
12878;SDS011;20617;49.476;10.986;2023-07-22T11:39:42;3.35;;;2.65;;
12878;SDS011;20617;49.476;10.986;2023-07-22T11:41:48;3.78;;;2.65;;
12878;SDS011;20617;49.476;10.986;2023-07-22T11:43:51;3.35;;;2.30;;
12878;SDS011;20617;49.476;10.986;2023-07-22T11:45:56;6.20;;;2.88;;
12878;SDS011;20617;49.476;10.986;2023-07-22T11:50:12;5.50;;;3.42;;
12878;SDS011;20617;49.476;10.986;2023-07-22T11:52:24;5.63;;;3.38;;
12878;SDS011;20617;49.476;10.986;2023-07-22T11:54:30;4.43;;;3.05;;
12878;SDS011;20617;49.476;10.986;2023-07-22T11:56:37;2.53;;;2.28;;
12878;SDS011;20617;49.476;10.986;2023-07-22T11:58:48;3.75;;;2.55;;
12878;SDS011;20617;49.476;10.986;2023-07-22T12:01:01;2.67;;;2.10;;
12878;SDS011;20617;49.476;10.986;2023-07-22T12:03:07;2.67;;;2.47;;
12878;SDS011;20617;49.476;10.986;2023-07-22T12:05:20;3.40;;;2.63;;
12878;SDS011;20617;49.476;10.986;2023-07-22T12:07:29;5.70;;;2.80;;
12878;SDS011;20617;49.476;10.986;2023-07-22T12:09:35;4.47;;;2.65;;
12878;SDS011;20617;49.476;10.986;2023-07-22T12:11:40;2.90;;;2.30;;
12878;SDS011;20617;49.476;10.986;2023-07-22T12:14:03;4.97;;;2.63;;
12878;SDS011;20617;49.476;10.986;2023-07-22T12:16:09;4.78;;;2.60;;
12878;SDS011;20617;49.476;10.986;2023-07-22T12:20:22;4.97;;;2.80;;
12878;SDS011;20617;49.476;10.986;2023-07-22T12:22:31;4.93;;;2.33;;
12878;SDS011;20617;49.476;10.986;2023-07-22T12:24:36;3.78;;;2.20;;
12878;SDS011;20617;49.476;10.986;2023-07-22T12:28:43;5.68;;;2.70;;
12878;SDS011;20617;49.476;10.986;2023-07-22T12:32:53;3.53;;;2.40;;
12878;SDS011;20617;49.476;10.986;2023-07-22T12:37:05;4.28;;;2.60;;
12878;SDS011;20617;49.476;10.986;2023-07-22T12:39:14;2.97;;;2.08;;
12878;SDS011;20617;49.476;10.986;2023-07-22T12:41:19;5.85;;;2.13;;
12878;SDS011;20617;49.476;10.986;2023-07-22T12:45:29;4.43;;;2.58;;
12878;SDS011;20617;49.476;10.986;2023-07-22T12:47:34;3.33;;;2.60;;
12878;SDS011;20617;49.476;10.986;2023-07-22T12:49:39;4.25;;;2.72;;
12878;SDS011;20617;49.476;10.986;2023-07-22T12:53:49;2.45;;;2.10;;
12878;SDS011;20617;49.476;10.986;2023-07-22T12:55:57;2.85;;;2.17;;
12878;SDS011;20617;49.476;10.986;2023-07-22T12:58:04;4.80;;;2.30;;
12878;SDS011;20617;49.476;10.986;2023-07-22T13:00:10;2.88;;;2.17;;
12878;SDS011;20617;49.476;10.986;2023-07-22T13:02:16;3.20;;;2.10;;
12878;SDS011;20617;49.476;10.986;2023-07-22T13:04:22;2.97;;;2.08;;
12878;SDS011;20617;49.476;10.986;2023-07-22T13:06:27;5.53;;;2.83;;
12878;SDS011;20617;49.476;10.986;2023-07-22T13:10:37;3.05;;;2.22;;
12878;SDS011;20617;49.476;10.986;2023-07-22T13:12:48;2.65;;;2.08;;
12878;SDS011;20617;49.476;10.986;2023-07-22T13:14:50;7.32;;;2.30;;
12878;SDS011;20617;49.476;10.986;2023-07-22T13:19:00;5.32;;;2.10;;
12878;SDS011;20617;49.476;10.986;2023-07-22T13:23:10;2.50;;;2.30;;
12878;SDS011;20617;49.476;10.986;2023-07-22T13:27:24;2.63;;;2.30;;
12878;SDS011;20617;49.476;10.986;2023-07-22T13:29:32;2.47;;;1.85;;
12878;SDS011;20617;49.476;10.986;2023-07-22T13:31:38;1.98;;;1.80;;
12878;SDS011;20617;49.476;10.986;2023-07-22T13:33:43;2.65;;;2.22;;
12878;SDS011;20617;49.476;10.986;2023-07-22T13:35:48;3.00;;;2.42;;
12878;SDS011;20617;49.476;10.986;2023-07-22T13:37:54;2.75;;;2.20;;
12878;SDS011;20617;49.476;10.986;2023-07-22T13:42:06;2.10;;;1.90;;
12878;SDS011;20617;49.476;10.986;2023-07-22T13:44:11;3.22;;;2.20;;
12878;SDS011;20617;49.476;10.986;2023-07-22T13:48:26;1.90;;;1.70;;
12878;SDS011;20617;49.476;10.986;2023-07-22T13:52:38;2.38;;;1.85;;
12878;SDS011;20617;49.476;10.986;2023-07-22T13:54:42;3.30;;;2.60;;